Time;durP1;ratioP1;P1;durP2;ratioP2;P2;SDS_P1;SDS_P2;PMS_P1;PMS_P2;Temp;Humidity;BMP_temperature;BMP_pressure;BME280_temperature;BME280_humidity;BME280_pressure;Samples;Min_cycle;Max_cycle;Signal;HPM_P1;HPM_P2
2022/08/30 00:02:14;;;;;;;4.00;3.60;;;17.20;99.90;;;;;;6291576;22;20398;-92
2022/08/30 00:04:41;;;;;;;3.60;3.03;;;17.10;99.90;;;;;;6290414;22;20434;-92
2022/08/30 00:07:08;;;;;;;4.57;3.97;;;17.10;99.90;;;;;;6290092;22;20419;-92
2022/08/30 00:09:35;;;;;;;3.87;3.43;;;17.10;99.90;;;;;;6290221;22;20443;-93
2022/08/30 00:12:03;;;;;;;4.00;3.53;;;17.00;99.90;;;;;;6290143;22;20418;-92
2022/08/30 00:14:29;;;;;;;4.30;3.50;;;17.00;99.90;;;;;;6290080;22;20914;-92
2022/08/30 00:16:56;;;;;;;5.67;4.30;;;17.00;99.90;;;;;;6289586;22;20438;-92
2022/08/30 00:19:24;;;;;;;4.00;3.57;;;17.00;99.90;;;;;;6279876;22;20442;-92
2022/08/30 00:21:51;;;;;;;5.43;4.27;;;17.00;99.90;;;;;;6280175;22;20434;-91
2022/08/30 00:24:18;;;;;;;4.60;3.87;;;16.90;99.90;;;;;;6289735;22;20419;-92
2022/08/30 00:26:44;;;;;;;4.50;4.10;;;16.90;99.90;;;;;;6290196;22;20419;-91
2022/08/30 00:29:11;;;;;;;4.63;3.80;;;16.90;99.90;;;;;;6279720;22;20449;-93
2022/08/30 00:31:38;;;;;;;5.60;4.30;;;16.90;99.90;;;;;;6289709;22;20464;-92
2022/08/30 00:34:04;;;;;;;4.77;4.10;;;16.80;99.90;;;;;;6289265;22;20488;-92
2022/08/30 00:36:33;;;;;;;4.50;4.10;;;16.80;99.90;;;;;;6289187;22;20981;-92
2022/08/30 00:38:59;;;;;;;4.03;3.67;;;16.80;99.90;;;;;;6289310;22;20427;-92
2022/08/30 00:41:26;;;;;;;4.77;3.97;;;16.80;99.90;;;;;;6288906;22;20423;-93
2022/08/30 00:43:53;;;;;;;4.33;3.90;;;16.70;99.90;;;;;;6279041;22;20419;-92
2022/08/30 00:46:19;;;;;;;3.90;3.53;;;16.70;99.90;;;;;;6278749;22;20473;-92
2022/08/30 00:48:49;;;;;;;4.87;3.97;;;16.70;99.90;;;;;;6278877;22;20419;-92
2022/08/30 00:51:18;;;;;;;3.93;3.57;;;16.70;99.90;;;;;;6288768;22;21048;-92
2022/08/30 00:53:50;;;;;;;4.00;3.60;;;16.70;99.90;;;;;;6287793;22;20431;-92
2022/08/30 00:56:18;;;;;;;5.20;4.10;;;16.70;99.90;;;;;;6287659;22;20430;-92
2022/08/30 00:58:49;;;;;;;5.23;4.00;;;16.70;99.90;;;;;;6277849;22;20473;-93
2022/08/30 01:01:16;;;;;;;4.63;3.60;;;16.70;99.90;;;;;;6277202;22;20441;-92
2022/08/30 01:03:44;;;;;;;4.83;4.03;;;16.70;99.90;;;;;;6287944;22;20473;-94
2022/08/30 01:06:13;;;;;;;4.00;3.50;;;16.60;99.90;;;;;;6277805;22;20419;-93
2022/08/30 01:08:40;;;;;;;4.10;3.70;;;16.60;99.90;;;;;;6287803;22;20490;-94
2022/08/30 01:11:11;;;;;;;4.30;3.90;;;16.60;99.90;;;;;;6277560;22;20957;-93
2022/08/30 01:13:39;;;;;;;4.70;4.20;;;16.60;99.90;;;;;;6288327;22;20497;-93
2022/08/30 01:16:06;;;;;;;5.30;4.50;;;16.50;99.90;;;;;;6279726;22;20474;-92
2022/08/30 01:18:33;;;;;;;4.63;3.90;;;16.50;99.90;;;;;;6288880;22;20430;-92
2022/08/30 01:21:06;;;;;;;4.03;3.63;;;16.50;99.90;;;;;;6287587;22;20781;-92
2022/08/30 01:23:36;;;;;;;3.70;3.40;;;16.50;99.90;;;;;;6277350;22;21034;-93
2022/08/30 01:26:04;;;;;;;5.20;3.73;;;16.40;99.90;;;;;;6288465;22;20433;-92
2022/08/30 01:28:32;;;;;;;5.63;4.30;;;16.40;99.90;;;;;;6287855;22;20527;-92
2022/08/30 01:30:58;;;;;;;3.97;3.67;;;16.40;99.90;;;;;;6286737;22;20446;-92
2022/08/30 01:33:26;;;;;;;5.57;4.27;;;16.40;99.90;;;;;;6286527;22;20454;-92
2022/08/30 01:35:55;;;;;;;6.60;4.43;;;16.40;99.90;;;;;;6289146;22;20431;-91
2022/08/30 01:38:25;;;;;;;4.30;3.70;;;16.30;99.90;;;;;;6279357;22;20427;-93
2022/08/30 01:40:58;;;;;;;4.53;3.67;;;16.30;99.90;;;;;;6278611;22;20443;-93
2022/08/30 01:43:26;;;;;;;6.03;3.80;;;16.30;99.90;;;;;;6287432;22;20423;-92
2022/08/30 01:45:53;;;;;;;4.50;4.10;;;16.30;99.90;;;;;;6277915;22;20472;-92
2022/08/30 01:48:20;;;;;;;6.53;3.90;;;16.30;99.90;;;;;;6287331;22;20430;-92
2022/08/30 01:50:47;;;;;;;4.97;4.17;;;16.30;99.90;;;;;;6287353;22;20474;-91
2022/08/30 01:53:14;;;;;;;6.90;3.83;;;16.20;99.90;;;;;;6290728;22;20419;-91
2022/08/30 01:55:42;;;;;;;4.40;3.70;;;16.20;99.90;;;;;;6279710;22;20445;-92
2022/08/30 01:58:10;;;;;;;5.70;4.33;;;16.30;99.90;;;;;;6282310;22;20419;-91
2022/08/30 02:00:38;;;;;;;4.70;3.87;;;16.20;99.90;;;;;;6298509;22;20446;-93
2022/08/30 02:03:05;;;;;;;3.70;3.40;;;16.20;99.90;;;;;;6298803;22;20414;-93
2022/08/30 02:05:32;;;;;;;4.33;3.93;;;16.20;99.90;;;;;;6299789;22;20484;-91
2022/08/30 02:07:59;;;;;;;4.63;4.23;;;16.20;99.90;;;;;;6280657;22;20506;-92
2022/08/30 02:10:26;;;;;;;4.30;3.90;;;16.20;99.90;;;;;;6288299;22;21015;-91
2022/08/30 02:12:53;;;;;;;6.40;3.87;;;16.20;99.90;;;;;;6277797;22;20430;-92
2022/08/30 02:15:21;;;;;;;4.10;3.70;;;16.10;99.90;;;;;;6276283;22;20431;-91
2022/08/30 02:17:48;;;;;;;4.87;3.80;;;16.10;99.90;;;;;;6276358;22;20423;-92
2022/08/30 02:20:14;;;;;;;4.77;4.10;;;16.10;99.90;;;;;;6276102;22;20811;-92
2022/08/30 02:22:41;;;;;;;4.83;4.17;;;16.10;99.90;;;;;;6286011;22;20477;-92
2022/08/30 02:25:08;;;;;;;5.97;4.60;;;16.10;99.90;;;;;;6275937;22;20422;-92
2022/08/30 02:27:35;;;;;;;5.60;3.63;;;16.10;99.90;;;;;;6286093;22;20419;-92
2022/08/30 02:30:04;;;;;;;4.40;4.00;;;16.10;99.90;;;;;;6275645;22;20451;-92
2022/08/30 02:32:32;;;;;;;3.60;3.30;;;16.10;99.90;;;;;;6275371;22;20430;-92
2022/08/30 02:34:59;;;;;;;5.00;4.03;;;16.00;99.90;;;;;;6275770;22;20430;-91
2022/08/30 02:37:25;;;;;;;3.70;3.40;;;16.10;99.90;;;;;;6275573;22;20449;-92
2022/08/30 02:39:52;;;;;;;5.17;4.53;;;16.10;99.90;;;;;;6285494;22;20976;-91
2022/08/30 02:42:19;;;;;;;5.03;3.63;;;16.00;99.90;;;;;;6285252;22;20422;-91
2022/08/30 02:44:46;;;;;;;5.17;4.33;;;16.00;99.90;;;;;;6275056;22;20941;-91
2022/08/30 02:47:12;;;;;;;4.10;3.70;;;16.00;99.90;;;;;;6275787;22;20419;-91
2022/08/30 02:49:40;;;;;;;6.60;4.27;;;16.00;99.90;;;;;;6275375;22;21051;-92
2022/08/30 02:52:07;;;;;;;4.93;3.67;;;16.00;99.90;;;;;;6285359;22;20432;-91
2022/08/30 02:54:34;;;;;;;4.40;3.80;;;15.90;99.90;;;;;;6284986;22;20446;-92
2022/08/30 02:57:03;;;;;;;4.30;3.90;;;15.90;99.90;;;;;;6275737;22;20765;-92
2022/08/30 02:59:30;;;;;;;4.83;4.10;;;15.90;99.90;;;;;;6285803;22;20442;-92
2022/08/30 03:01:56;;;;;;;4.27;3.87;;;15.80;99.90;;;;;;6275691;22;20426;-92
2022/08/30 03:04:25;;;;;;;5.40;3.60;;;15.90;99.90;;;;;;6277141;22;20815;-92
2022/08/30 03:06:54;;;;;;;4.23;3.70;;;15.90;99.90;;;;;;6285425;22;20433;-92
2022/08/30 03:09:21;;;;;;;4.83;4.30;;;15.80;99.90;;;;;;6285691;22;20422;-92
2022/08/30 03:11:47;;;;;;;4.30;3.90;;;15.80;99.90;;;;;;6285524;22;20442;-91
2022/08/30 03:14:14;;;;;;;4.67;3.77;;;15.80;99.90;;;;;;6285350;22;20423;-92
2022/08/30 03:16:41;;;;;;;5.23;4.70;;;15.80;99.90;;;;;;6276719;22;20439;-92
2022/08/30 03:19:08;;;;;;;4.70;4.17;;;15.80;99.90;;;;;;6277542;22;20465;-92
2022/08/30 03:21:36;;;;;;;5.67;5.07;;;15.80;99.90;;;;;;6277921;22;20418;-91
2022/08/30 03:24:05;;;;;;;4.17;3.77;;;15.70;99.90;;;;;;6287227;22;20457;-92
2022/08/30 03:26:32;;;;;;;5.20;4.73;;;15.70;99.90;;;;;;6288485;22;20423;-93
2022/08/30 03:28:59;;;;;;;4.30;3.90;;;15.70;99.90;;;;;;6280119;22;20433;-94
2022/08/30 03:31:31;;;;;;;4.77;4.27;;;15.70;99.90;;;;;;6291154;22;20488;-94
2022/08/30 03:33:58;;;;;;;4.27;3.87;;;15.70;99.90;;;;;;6303946;22;20445;-94
2022/08/30 03:36:25;;;;;;;6.03;4.43;;;15.70;99.90;;;;;;6300745;22;20471;-94
2022/08/30 03:38:55;;;;;;;4.97;4.07;;;15.70;99.90;;;;;;6302185;22;20441;-95
2022/08/30 03:41:24;;;;;;;5.80;4.40;;;15.60;99.90;;;;;;6297507;22;20434;-93
2022/08/30 03:43:51;;;;;;;4.97;4.10;;;15.60;99.90;;;;;;6299292;22;20418;-93
2022/08/30 03:46:18;;;;;;;6.00;4.40;;;15.60;99.90;;;;;;6297808;22;20450;-93
2022/08/30 03:48:45;;;;;;;4.90;4.10;;;15.60;99.90;;;;;;6298919;22;20406;-92
2022/08/30 03:51:12;;;;;;;6.23;4.53;;;15.60;99.90;;;;;;6289121;22;20450;-92
2022/08/30 03:53:39;;;;;;;5.93;4.87;;;15.50;99.90;;;;;;6289723;22;20449;-91
2022/08/30 03:56:06;;;;;;;4.40;3.80;;;15.50;99.90;;;;;;6290574;22;20423;-92
2022/08/30 03:58:34;;;;;;;4.33;3.93;;;15.50;99.90;;;;;;6291537;22;20431;-92
2022/08/30 04:01:04;;;;;;;4.70;4.30;;;15.50;99.90;;;;;;6290981;22;20448;-93
2022/08/30 04:03:31;;;;;;;4.47;4.00;;;15.50;99.90;;;;;;6290512;22;20423;-93
2022/08/30 04:05:58;;;;;;;5.87;4.60;;;15.50;99.90;;;;;;6291429;22;20430;-93
2022/08/30 04:08:25;;;;;;;4.47;4.07;;;15.50;99.90;;;;;;6296120;22;20418;-93
2022/08/30 04:10:54;;;;;;;8.60;4.77;;;15.40;99.90;;;;;;6296258;22;20461;-92
2022/08/30 04:13:21;;;;;;;5.17;4.33;;;15.40;99.90;;;;;;6289809;22;20404;-92
2022/08/30 04:15:49;;;;;;;4.97;4.50;;;15.40;99.90;;;;;;6312353;22;20506;-94
2022/08/30 04:18:17;;;;;;;5.37;4.67;;;15.40;99.90;;;;;;6312145;22;20430;-94
2022/08/30 04:20:45;;;;;;;5.87;4.80;;;15.40;99.90;;;;;;6312332;22;20967;-93
2022/08/30 04:23:12;;;;;;;4.90;4.40;;;15.30;99.90;;;;;;6304173;22;20450;-91
2022/08/30 04:25:40;;;;;;;4.30;3.90;;;15.30;99.90;;;;;;6307424;22;20419;-92
2022/08/30 04:28:08;;;;;;;5.03;4.60;;;15.30;99.90;;;;;;6314559;22;20478;-93
2022/08/30 04:30:38;;;;;;;5.30;4.80;;;15.30;99.90;;;;;;6312909;22;20443;-93
2022/08/30 04:33:06;;;;;;;5.27;4.33;;;15.30;99.90;;;;;;6311005;22;20407;-93
2022/08/30 04:35:33;;;;;;;5.00;4.27;;;15.30;99.90;;;;;;6315375;22;20475;-94
2022/08/30 04:38:00;;;;;;;4.97;3.87;;;15.30;99.90;;;;;;6313595;22;20513;-93
2022/08/30 04:40:27;;;;;;;8.07;4.43;;;15.30;99.90;;;;;;6309069;22;20503;-94
2022/08/30 04:42:55;;;;;;;4.97;4.40;;;15.30;99.90;;;;;;6298961;22;20429;-93
2022/08/30 04:45:22;;;;;;;5.30;4.10;;;15.30;99.90;;;;;;6308563;22;20427;-93
2022/08/30 04:47:49;;;;;;;5.23;4.50;;;15.20;99.90;;;;;;6308820;22;20494;-92
2022/08/30 04:50:19;;;;;;;5.50;4.23;;;15.20;99.90;;;;;;6306497;22;20449;-92
2022/08/30 04:52:46;;;;;;;5.37;4.53;;;15.30;99.90;;;;;;6305256;22;20442;-93
2022/08/30 04:55:14;;;;;;;5.03;4.33;;;15.20;99.90;;;;;;6305842;22;20415;-93
2022/08/30 04:57:42;;;;;;;5.70;4.90;;;15.20;99.90;;;;;;6306977;22;20439;-92
2022/08/30 05:00:11;;;;;;;4.83;4.33;;;15.20;99.90;;;;;;6303857;22;20435;-93
2022/08/30 05:02:39;;;;;;;5.30;4.80;;;15.20;99.90;;;;;;6304139;22;20428;-93
2022/08/30 05:07:52;;;;;;;4.90;4.30;;;15.20;99.90;;;;;;6305952;22;20417;-95
2022/08/30 05:10:19;;;;;;;5.03;4.47;;;15.30;99.90;;;;;;6305614;22;20427;-94
2022/08/30 05:12:46;;;;;;;7.00;4.90;;;15.30;99.90;;;;;;6304700;22;20423;-95
2022/08/30 05:15:13;;;;;;;5.13;4.60;;;15.30;99.90;;;;;;6307244;22;20413;-93
2022/08/30 05:17:41;;;;;;;5.70;5.20;;;15.40;99.90;;;;;;6303770;22;20438;-92
2022/08/30 05:20:10;;;;;;;5.83;4.73;;;15.40;99.90;;;;;;6303220;22;20446;-93
2022/08/30 05:22:40;;;;;;;7.53;6.73;;;15.50;99.90;;;;;;6310654;22;20497;-94
2022/08/30 05:27:44;;;;;;;5.47;4.97;;;15.70;99.90;;;;;;6390265;22;20440;-91
2022/08/30 05:30:12;;;;;;;5.40;4.90;;;15.80;99.90;;;;;;6394911;22;20519;-92
2022/08/30 05:32:39;;;;;;;5.17;4.67;;;15.90;99.90;;;;;;6394474;22;20416;-92
2022/08/30 05:35:07;;;;;;;5.90;5.30;;;15.90;99.90;;;;;;6399654;22;20408;-91
2022/08/30 05:37:34;;;;;;;6.10;4.73;;;16.00;99.90;;;;;;6399201;22;20463;-92
2022/08/30 05:40:01;;;;;;;5.50;5.00;;;16.10;99.90;;;;;;6401227;22;20470;-91
2022/08/30 05:42:27;;;;;;;6.17;5.10;;;16.20;99.90;;;;;;6395579;22;20427;-92
2022/08/30 05:44:56;;;;;;;6.30;4.53;;;16.10;99.90;;;;;;6398181;22;20419;-91
2022/08/30 05:47:22;;;;;;;5.87;5.33;;;16.20;99.90;;;;;;6392270;22;20413;-92
2022/08/30 05:49:49;;;;;;;5.57;5.00;;;16.30;99.90;;;;;;6394618;22;20451;-92
2022/08/30 05:52:17;;;;;;;4.70;4.30;;;16.30;99.90;;;;;;6395391;22;20419;-91
2022/08/30 05:54:43;;;;;;;5.60;4.73;;;16.40;99.90;;;;;;6383735;22;20420;-90
2022/08/30 05:57:10;;;;;;;7.43;5.10;;;16.40;99.90;;;;;;6379272;22;20440;-90
2022/08/30 05:59:38;;;;;;;5.87;5.07;;;16.50;99.90;;;;;;6378899;22;20947;-91
2022/08/30 06:02:06;;;;;;;6.30;5.03;;;16.50;99.90;;;;;;6376824;22;20416;-91
2022/08/30 06:04:35;;;;;;;6.40;5.67;;;16.60;99.90;;;;;;6387399;22;20971;-91
2022/08/30 06:07:02;;;;;;;5.90;4.57;;;16.60;99.90;;;;;;6387170;22;20420;-93
2022/08/30 06:09:29;;;;;;;6.57;5.70;;;16.70;99.90;;;;;;6383499;22;20498;-91
2022/08/30 06:11:56;;;;;;;6.10;4.90;;;16.70;99.90;;;;;;6385016;22;20919;-92
2022/08/30 06:14:42;;;;;;;6.43;5.70;;;16.70;99.90;;;;;;6385390;22;20420;-92
2022/08/30 06:17:27;;;;;;;9.53;5.37;;;16.80;99.90;;;;;;6386842;22;20432;-92
2022/08/30 06:23:18;;;;;;;7.37;5.90;;;17.00;99.90;;;;;;6344065;22;20443;-95
2022/08/30 06:25:45;;;;;;;6.37;5.57;;;17.20;99.90;;;;;;6389067;22;20396;-93
2022/08/30 06:28:12;;;;;;;7.60;5.83;;;17.30;99.90;;;;;;6399508;22;20405;-92
2022/08/30 06:30:41;;;;;;;6.70;5.73;;;17.40;99.90;;;;;;6395401;22;20432;-93
2022/08/30 06:33:10;;;;;;;8.07;5.83;;;17.40;99.90;;;;;;6395701;22;20404;-93
2022/08/30 06:35:38;;;;;;;6.27;5.63;;;17.50;99.90;;;;;;6400052;22;20412;-93
2022/08/30 06:38:05;;;;;;;7.13;6.10;;;17.60;99.90;;;;;;6386830;22;20459;-92
2022/08/30 06:40:31;;;;;;;7.23;6.27;;;17.60;99.90;;;;;;6389547;22;20444;-92
2022/08/30 06:42:58;;;;;;;6.53;5.83;;;17.80;99.90;;;;;;6397940;22;20407;-94
2022/08/30 06:45:25;;;;;;;7.07;5.73;;;17.80;99.90;;;;;;6398367;22;20483;-93
2022/08/30 06:47:52;;;;;;;6.73;6.03;;;17.90;99.90;;;;;;6402766;22;20416;-92
2022/08/30 06:50:43;;;;;;;7.17;5.40;;;18.00;99.90;;;;;;6390671;22;20436;-92
2022/08/30 06:53:10;;;;;;;6.97;6.33;;;18.00;99.90;;;;;;6386587;22;20400;-92
2022/08/30 06:55:37;;;;;;;7.93;6.93;;;18.10;99.90;;;;;;6398512;22;20412;-92
2022/08/30 06:58:05;;;;;;;6.73;6.13;;;18.20;99.90;;;;;;6388809;22;20471;-92
2022/08/30 07:00:31;;;;;;;6.83;6.20;;;18.20;99.90;;;;;;6400485;22;20424;-92
2022/08/30 07:03:01;;;;;;;7.50;6.30;;;18.30;99.90;;;;;;6396602;22;20420;-93
2022/08/30 07:05:29;;;;;;;7.50;6.37;;;18.40;99.90;;;;;;6392130;22;20422;-92
2022/08/30 07:07:56;;;;;;;8.73;6.73;;;18.50;99.90;;;;;;6389853;22;20435;-92
2022/08/30 07:10:22;;;;;;;8.07;7.10;;;18.60;99.90;;;;;;6384610;22;20436;-92
2022/08/30 07:12:49;;;;;;;7.47;5.83;;;18.70;99.90;;;;;;6395555;22;20414;-93
2022/08/30 07:15:19;;;;;;;7.50;6.00;;;18.70;99.90;;;;;;6403708;22;20416;-93
2022/08/30 07:20:32;;;;;;;5.47;4.97;;;18.90;99.90;;;;;;6387402;22;20465;-92
2022/08/30 07:23:01;;;;;;;5.63;5.13;;;19.00;99.90;;;;;;6399103;22;20487;-93
2022/08/30 07:25:28;;;;;;;9.90;5.03;;;19.10;99.90;;;;;;6374403;22;20423;-92
2022/08/30 07:27:58;;;;;;;9.87;5.53;;;19.20;99.90;;;;;;6385753;22;20422;-92
2022/08/30 07:30:25;;;;;;;5.30;4.80;;;19.30;99.90;;;;;;6386336;22;20450;-91
2022/08/30 07:32:54;;;;;;;5.50;4.90;;;19.40;99.90;;;;;;6390333;22;20426;-92
2022/08/30 07:35:21;;;;;;;6.37;5.53;;;19.40;99.90;;;;;;6378896;22;20419;-91
2022/08/30 07:37:54;;;;;;;6.73;6.03;;;19.50;99.90;;;;;;6393833;22;20440;-92
2022/08/30 07:40:21;;;;;;;7.80;6.13;;;19.50;99.90;;;;;;6397369;22;20438;-92
2022/08/30 07:42:52;;;;;;;5.63;5.13;;;19.60;99.90;;;;;;6396002;22;20420;-91
2022/08/30 07:45:20;;;;;;;8.63;6.13;;;19.70;99.90;;;;;;6384333;22;20401;-93
2022/08/30 07:47:46;;;;;;;6.03;5.53;;;19.90;99.90;;;;;;6394304;22;20417;-92
2022/08/30 07:50:13;;;;;;;5.60;4.90;;;20.00;99.90;;;;;;6397517;22;20446;-93
2022/08/30 07:52:40;;;;;;;5.60;5.10;;;20.10;99.90;;;;;;6393825;22;20423;-94
2022/08/30 07:55:09;;;;;;;6.70;5.90;;;20.30;99.90;;;;;;6393876;22;20404;-94
2022/08/30 07:57:36;;;;;;;7.80;5.50;;;20.40;99.90;;;;;;6400164;22;20447;-93
2022/08/30 08:00:05;;;;;;;5.93;5.33;;;20.50;99.90;;;;;;6401979;22;20433;-93
2022/08/30 08:02:32;;;;;;;6.93;6.17;;;20.60;99.90;;;;;;6402376;22;20420;-93
2022/08/30 08:04:59;;;;;;;7.10;5.70;;;20.80;99.90;;;;;;6395666;22;20423;-92
2022/08/30 08:07:26;;;;;;;6.83;6.07;;;20.80;99.90;;;;;;6395422;22;20416;-91
2022/08/30 08:09:53;;;;;;;5.93;5.30;;;20.90;99.90;;;;;;6400777;22;20462;-92
2022/08/30 08:12:21;;;;;;;6.00;5.40;;;21.00;99.90;;;;;;6395618;22;20911;-92
2022/08/30 08:14:48;;;;;;;8.60;5.90;;;20.90;99.90;;;;;;6399824;22;20423;-91
2022/08/30 08:17:21;;;;;;;5.50;4.90;;;21.00;99.90;;;;;;6395873;22;20450;-92
2022/08/30 08:20:20;;;;;;;6.07;5.47;;;21.10;99.90;;;;;;6405703;22;20451;-93
2022/08/30 08:22:48;;;;;;;6.60;5.67;;;21.20;99.90;;;;;;6408979;22;20405;-93
2022/08/30 08:25:15;;;;;;;6.53;5.70;;;21.50;99.90;;;;;;6408095;22;20468;-93
2022/08/30 08:27:43;;;;;;;6.60;5.27;;;21.60;99.90;;;;;;6397704;22;20432;-94
2022/08/30 08:30:13;;;;;;;6.87;4.87;;;21.80;99.90;;;;;;6409217;22;20440;-94
2022/08/30 08:32:40;;;;;;;7.07;4.80;;;21.90;99.90;;;;;;6408933;22;20424;-93
2022/08/30 08:35:07;;;;;;;5.50;5.00;;;22.00;99.90;;;;;;6403348;22;20431;-93
2022/08/30 08:53:38;;;;;;;4.97;4.47;;;22.90;99.90;;;;;;6407659;22;20465;-95
2022/08/30 08:56:15;;;;;;;4.90;4.47;;;23.00;99.90;;;;;;6374872;22;20423;-94
2022/08/30 09:07:13;;;;;;;4.73;4.33;;;23.60;99.90;;;;;;6281861;22;20431;-92
2022/08/30 09:10:07;;;;;;;4.80;4.10;;;23.80;99.90;;;;;;6328915;22;20483;-95
2022/08/30 09:34:15;;;;;;;4.50;4.10;;;25.10;99.90;;;;;;6363785;22;20452;-92
2022/08/30 09:36:48;;;;;;;6.40;4.13;;;25.30;99.90;;;;;;6371107;22;20411;-92
2022/08/30 09:39:17;;;;;;;4.67;4.27;;;25.40;99.90;;;;;;6371323;22;20431;-92
2022/08/30 09:41:53;;;;;;;4.63;4.23;;;25.60;99.90;;;;;;6353686;22;20491;-92
2022/08/30 09:44:23;;;;;;;5.73;4.43;;;25.70;99.90;;;;;;6362487;22;20511;-93
2022/08/30 09:46:53;;;;;;;4.50;4.10;;;25.80;99.90;;;;;;6355528;22;20443;-92
2022/08/30 09:49:32;;;;;;;4.50;4.10;;;25.80;99.90;;;;;;6370179;22;20443;-93
2022/08/30 09:52:10;;;;;;;4.47;3.90;;;25.90;99.90;;;;;;6376865;22;20432;-93
2022/08/30 09:54:44;;;;;;;4.50;4.10;;;26.00;99.90;;;;;;6375926;22;20445;-93
2022/08/30 09:57:22;;;;;;;4.37;3.93;;;26.10;99.90;;;;;;6375874;22;20397;-92
2022/08/30 09:59:58;;;;;;;4.10;3.60;;;26.20;99.90;;;;;;6359174;22;20409;-92
2022/08/30 10:02:37;;;;;;;4.20;3.90;;;26.20;99.90;;;;;;6355716;22;20460;-92
2022/08/30 10:05:12;;;;;;;4.40;4.00;;;26.30;99.90;;;;;;6366523;22;20416;-93
2022/08/30 10:07:49;;;;;;;4.63;4.23;;;26.40;99.90;;;;;;6369335;22;20435;-92
2022/08/30 10:10:24;;;;;;;4.20;3.90;;;26.40;99.90;;;;;;6358710;22;20432;-92
2022/08/30 10:13:00;;;;;;;4.57;3.90;;;26.50;99.90;;;;;;6351732;22;20393;-92
2022/08/30 10:15:38;;;;;;;4.37;3.77;;;26.50;99.90;;;;;;6361922;22;20414;-92
2022/08/30 10:18:13;;;;;;;4.53;4.10;;;26.60;99.90;;;;;;6350262;22;20435;-92
2022/08/30 10:20:47;;;;;;;4.60;4.20;;;26.60;99.90;;;;;;6359393;22;20463;-92
2022/08/30 10:23:20;;;;;;;4.20;3.90;;;26.80;99.90;;;;;;6350833;22;20408;-92
2022/08/30 10:25:51;;;;;;;4.17;3.80;;;26.90;99.90;;;;;;6348178;22;20412;-93
2022/08/30 10:28:26;;;;;;;4.50;4.10;;;27.00;99.90;;;;;;6375553;22;20405;-93
2022/08/30 10:30:59;;;;;;;4.13;3.70;;;27.10;99.90;;;;;;6361809;22;20444;-93
2022/08/30 10:33:33;;;;;;;4.30;3.90;;;27.20;99.90;;;;;;6344894;22;20429;-92
2022/08/30 10:36:04;;;;;;;5.20;3.83;;;27.30;99.90;;;;;;6365245;22;20389;-93
2022/08/30 10:38:34;;;;;;;4.17;3.77;;;27.40;99.90;;;;;;6378167;22;20524;-93
2022/08/30 10:41:21;;;;;;;4.93;4.20;;;27.40;99.90;;;;;;6376824;22;20602;-93
2022/08/30 10:43:54;;;;;;;4.40;3.60;;;27.50;99.90;;;;;;6376179;22;20404;-94
2022/08/30 10:46:30;;;;;;;4.90;4.17;;;27.60;99.90;;;;;;6355476;22;20410;-93
2022/08/30 10:49:01;;;;;;;3.80;3.50;;;27.70;99.90;;;;;;6354682;22;20504;-93
2022/08/30 10:51:32;;;;;;;4.10;3.70;;;27.90;99.90;;;;;;6357414;22;20451;-93
2022/08/30 10:54:06;;;;;;;3.80;3.50;;;27.90;99.90;;;;;;6351871;22;20433;-91
2022/08/30 10:56:35;;;;;;;4.10;3.80;;;27.90;99.90;;;;;;6349534;22;20407;-93
2022/08/30 10:59:05;;;;;;;4.60;3.90;;;28.00;99.90;;;;;;6348576;22;20445;-92
2022/08/30 11:01:54;;;;;;;4.23;3.83;;;28.00;99.90;;;;;;6347470;22;20417;-93
2022/08/30 11:04:57;;;;;;;5.27;4.30;;;28.10;99.90;;;;;;6366605;22;20418;-92
2022/08/30 11:07:33;;;;;;;4.20;3.90;;;28.10;99.90;;;;;;6372293;22;20396;-92
2022/08/30 11:10:21;;;;;;;4.10;3.70;;;28.30;99.90;;;;;;6376418;22;20428;-93
2022/08/30 11:12:55;;;;;;;4.10;3.30;;;28.50;99.90;;;;;;6376443;22;20465;-93
2022/08/30 11:15:25;;;;;;;4.30;3.90;;;28.60;99.40;;;;;;6375376;22;20425;-93
2022/08/30 11:18:00;;;;;;;4.70;3.63;;;28.70;99.70;;;;;;6375848;22;20408;-92
2022/08/30 11:20:38;;;;;;;4.07;3.67;;;28.80;99.70;;;;;;6375354;22;20429;-92
2022/08/30 11:23:24;;;;;;;4.87;3.60;;;28.90;99.00;;;;;;6376332;22;20409;-93
2022/08/30 11:25:53;;;;;;;4.10;3.80;;;28.90;99.70;;;;;;6376716;22;20421;-93
2022/08/30 11:28:53;;;;;;;3.80;3.50;;;29.00;99.90;;;;;;6376464;22;20401;-93
2022/08/30 11:31:35;;;;;;;4.43;4.07;;;29.10;98.90;;;;;;6375328;22;20420;-93
2022/08/30 11:34:05;;;;;;;4.30;3.70;;;29.30;99.10;;;;;;6375426;22;20435;-93
2022/08/30 11:37:05;;;;;;;4.30;3.90;;;29.30;99.20;;;;;;6375456;22;20413;-92
2022/08/30 11:39:56;;;;;;;4.30;3.90;;;29.20;97.40;;;;;;6378363;22;20496;-93
2022/08/30 11:42:38;;;;;;;4.27;3.60;;;29.10;98.60;;;;;;6377279;22;20472;-92
2022/08/30 11:45:51;;;;;;;4.23;3.83;;;29.00;96.50;;;;;;6355754;22;20398;-92
2022/08/30 11:48:44;;;;;;;4.73;4.20;;;28.60;97.20;;;;;;6199960;23;20402;-93
2022/08/30 11:51:39;;;;;;;4.27;3.87;;;28.40;97.60;;;;;;6368371;22;20428;-92
2022/08/30 11:54:17;;;;;;;3.73;3.40;;;28.30;98.70;;;;;;6368034;22;20756;-93
2022/08/30 11:56:54;;;;;;;3.70;3.40;;;28.30;99.90;;;;;;6370950;22;20386;-92
2022/08/30 11:59:30;;;;;;;3.63;3.33;;;28.30;99.90;;;;;;6368980;22;20444;-92
2022/08/30 12:01:58;;;;;;;3.97;3.67;;;28.30;99.60;;;;;;6349070;22;20401;-91
2022/08/30 12:04:34;;;;;;;4.00;3.70;;;28.20;99.40;;;;;;6363177;22;20417;-91
2022/08/30 12:07:04;;;;;;;4.27;3.87;;;28.10;98.80;;;;;;6364000;22;20417;-91
2022/08/30 12:10:02;;;;;;;5.00;3.50;;;27.90;98.80;;;;;;6365338;22;20433;-91
2022/08/30 12:12:47;;;;;;;4.60;4.20;;;27.80;99.30;;;;;;6356554;22;20396;-91
2022/08/30 12:15:48;;;;;;;4.03;3.73;;;27.70;99.90;;;;;;6356892;22;20479;-91
2022/08/30 12:18:28;;;;;;;3.97;3.67;;;27.80;99.90;;;;;;6364583;22;20417;-91
2022/08/30 12:21:03;;;;;;;4.33;3.90;;;27.80;99.90;;;;;;6360484;22;20447;-91
2022/08/30 12:23:41;;;;;;;4.83;4.43;;;27.90;99.90;;;;;;6371802;22;20422;-91
2022/08/30 12:26:18;;;;;;;4.70;4.30;;;27.90;99.50;;;;;;6369205;22;20453;-90
2022/08/30 12:28:47;;;;;;;4.10;3.80;;;27.80;98.50;;;;;;6372169;22;20388;-92
2022/08/30 12:31:17;;;;;;;3.90;3.60;;;27.70;98.10;;;;;;6359680;22;20510;-90
2022/08/30 12:33:52;;;;;;;4.00;3.70;;;27.70;98.60;;;;;;6371507;22;20483;-91
2022/08/30 12:36:34;;;;;;;3.93;3.57;;;27.70;98.50;;;;;;6370649;22;20433;-91
2022/08/30 12:39:12;;;;;;;4.43;3.87;;;27.70;99.00;;;;;;6364621;22;20508;-91
2022/08/30 12:41:40;;;;;;;3.73;3.43;;;27.80;99.80;;;;;;6366915;22;20437;-90
2022/08/30 12:44:12;;;;;;;4.10;3.60;;;27.90;99.80;;;;;;6358613;22;20443;-92
2022/08/30 12:47:25;;;;;;;4.10;3.80;;;28.10;99.20;;;;;;6370644;22;20424;-92
2022/08/30 12:49:54;;;;;;;4.07;3.67;;;28.20;99.90;;;;;;6279894;22;20437;-92
2022/08/30 12:52:49;;;;;;;3.53;3.23;;;28.20;99.90;;;;;;6366525;22;20480;-92
2022/08/30 12:55:21;;;;;;;4.40;4.00;;;28.00;98.50;;;;;;6360518;22;20380;-92
2022/08/30 13:00:41;;;;;;;3.80;3.37;;;28.00;98.90;;;;;;6347761;22;20449;-93
2022/08/30 13:03:36;;;;;;;4.53;4.13;;;28.20;99.90;;;;;;6365866;22;20425;-92
2022/08/30 13:06:06;;;;;;;4.80;4.40;;;28.50;99.00;;;;;;6289987;22;20417;-92
2022/08/30 13:08:36;;;;;;;4.00;3.70;;;28.60;97.10;;;;;;6367861;22;20397;-92
2022/08/30 13:11:07;;;;;;;4.10;3.70;;;28.70;96.50;;;;;;6365591;22;20436;-91
2022/08/30 13:13:40;;;;;;;4.10;3.80;;;28.80;96.90;;;;;;6360870;22;20413;-92
2022/08/30 13:16:20;;;;;;;3.97;3.67;;;28.70;95.50;;;;;;6359659;22;20434;-92
2022/08/30 13:18:48;;;;;;;3.90;3.57;;;28.80;97.60;;;;;;6363878;22;20440;-92
2022/08/30 13:21:24;;;;;;;3.87;3.57;;;28.80;97.40;;;;;;6373729;22;20500;-92
2022/08/30 13:23:55;;;;;;;4.40;4.00;;;28.90;97.50;;;;;;6363077;22;20409;-92
2022/08/30 13:26:21;;;;;;;3.43;3.13;;;29.00;97.40;;;;;;6376979;22;20417;-92
2022/08/30 13:28:50;;;;;;;5.70;3.83;;;29.10;97.60;;;;;;6377087;22;20412;-93
2022/08/30 13:31:17;;;;;;;3.97;3.60;;;29.10;96.10;;;;;;6377303;22;20445;-93
2022/08/30 13:33:45;;;;;;;4.20;3.60;;;29.10;96.60;;;;;;6366571;22;20448;-94
2022/08/30 13:36:13;;;;;;;3.83;3.50;;;29.00;97.30;;;;;;6376056;22;20408;-92
2022/08/30 13:38:42;;;;;;;4.07;3.67;;;28.90;97.10;;;;;;6376812;22;20404;-92
2022/08/30 13:41:09;;;;;;;3.80;3.50;;;28.80;95.80;;;;;;6365723;22;20460;-92
2022/08/30 13:43:37;;;;;;;4.27;3.87;;;28.70;95.80;;;;;;6374027;22;20429;-92
2022/08/30 13:46:04;;;;;;;3.70;3.40;;;28.80;97.10;;;;;;6374716;22;20423;-93
2022/08/30 13:48:31;;;;;;;3.23;3.03;;;28.90;97.70;;;;;;6362605;22;20397;-92
2022/08/30 13:50:59;;;;;;;7.27;3.40;;;28.80;97.00;;;;;;6363858;22;20429;-93
2022/08/30 13:53:26;;;;;;;3.60;3.30;;;28.70;96.40;;;;;;6367454;22;20521;-93
2022/08/30 13:55:55;;;;;;;3.87;3.57;;;28.60;96.70;;;;;;6363216;22;20452;-92
2022/08/30 13:58:22;;;;;;;4.00;3.70;;;28.60;97.20;;;;;;6371256;22;20480;-93
2022/08/30 14:00:51;;;;;;;3.87;3.57;;;28.40;95.80;;;;;;6369601;22;20433;-93
2022/08/30 14:03:18;;;;;;;3.37;3.10;;;28.30;94.90;;;;;;6368622;22;20421;-93
2022/08/30 14:05:47;;;;;;;4.57;4.17;;;28.10;95.50;;;;;;6368184;22;20429;-92
2022/08/30 14:08:20;;;;;;;4.30;3.90;;;27.90;95.00;;;;;;6374564;22;20417;-92